Time;durP1;ratioP1;P1;durP2;ratioP2;P2;SDS_P1;SDS_P2;PMS_P1;PMS_P2;Temp;Humidity;BMP_temperature;BMP_pressure;BME280_temperature;BME280_humidity;BME280_pressure;Samples;Min_cycle;Max_cycle;Signal;HPM_P1;HPM_P2
2021/08/24 00:00:48;;;;;;;8.40;7.60;;;;;23.40;101505.00;;;;2071024;28;25523;-68
2021/08/24 00:01:48;;;;;;;9.23;8.33;;;;;23.40;101514.00;;;;2071256;28;20230;-68
2021/08/24 00:02:49;;;;;;;8.40;7.67;;;;;23.40;101514.00;;;;2071297;28;20256;-68
2021/08/24 00:03:49;;;;;;;8.60;7.70;;;;;23.40;101516.00;;;;2070581;28;20218;-69
2021/08/24 00:04:49;;;;;;;8.17;7.43;;;;;23.40;101513.00;;;;2070462;28;20226;-69
2021/08/24 00:05:50;;;;;;;7.90;7.20;;;;;23.40;101514.00;;;;2070976;28;20298;-69
2021/08/24 00:06:50;;;;;;;9.00;7.90;;;;;23.40;101512.00;;;;2071168;28;20275;-69
2021/08/24 00:07:52;;;;;;;8.30;7.50;;;;;23.40;101512.00;;;;2071327;28;20210;-69
2021/08/24 00:08:53;;;;;;;9.38;7.63;;;;;23.40;101510.00;;;;2070414;28;20210;-68
2021/08/24 00:09:53;;;;;;;7.73;7.03;;;;;23.40;101516.00;;;;2070912;28;20226;-68
2021/08/24 00:10:55;;;;;;;9.30;8.30;;;;;23.40;101521.00;;;;2071167;28;20242;-69
2021/08/24 00:11:55;;;;;;;7.63;6.93;;;;;23.40;101505.00;;;;2070918;28;20663;-69
2021/08/24 00:12:56;;;;;;;7.97;7.27;;;;;23.40;101513.00;;;;2071173;28;20218;-69
2021/08/24 00:13:56;;;;;;;8.17;7.40;;;;;23.40;101514.00;;;;2062258;28;20255;-69
2021/08/24 00:14:56;;;;;;;8.17;7.37;;;;;23.40;101515.00;;;;2058512;28;20223;-69
2021/08/24 00:15:57;;;;;;;7.60;6.90;;;;;23.40;101510.00;;;;2071121;28;20352;-68
2021/08/24 00:16:58;;;;;;;7.50;6.80;;;;;23.40;101505.00;;;;2072545;28;20224;-69
2021/08/24 00:17:58;;;;;;;8.30;7.60;;;;;23.40;101518.00;;;;2072645;28;20225;-69
2021/08/24 00:18:59;;;;;;;8.00;7.30;;;;;23.40;101508.00;;;;2071927;28;20500;-68
2021/08/24 00:19:59;;;;;;;7.30;6.60;;;;;23.40;101510.00;;;;2070309;28;20832;-69
2021/08/24 00:21:00;;;;;;;7.60;6.90;;;;;23.40;101517.00;;;;2072392;28;20589;-69
2021/08/24 00:22:00;;;;;;;7.70;7.00;;;;;23.40;101512.00;;;;2072649;28;20271;-69
2021/08/24 00:23:04;;;;;;;8.07;7.27;;;;;23.40;101511.00;;;;2072369;28;20218;-69
2021/08/24 00:24:05;;;;;;;10.00;7.53;;;;;23.40;101517.00;;;;2072295;28;20218;-68
2021/08/24 00:25:07;;;;;;;10.00;7.13;;;;;23.40;101517.00;;;;2061190;28;20758;-69
2021/08/24 00:26:07;;;;;;;9.57;7.18;;;;;23.50;101520.00;;;;2059690;28;20278;-69
2021/08/24 00:27:07;;;;;;;8.00;6.97;;;;;23.40;101511.00;;;;2070519;28;20220;-69
2021/08/24 00:28:08;;;;;;;9.53;6.40;;;;;23.40;101518.00;;;;2071778;28;20214;-69
2021/08/24 00:29:08;;;;;;;8.13;6.07;;;;;23.30;101512.00;;;;2070788;28;20638;-69
2021/08/24 00:30:10;;;;;;;8.40;5.53;;;;;23.40;101519.00;;;;2071730;28;20210;-70
2021/08/24 00:31:10;;;;;;;7.53;5.30;;;;;23.40;101518.00;;;;2072077;28;20731;-69
2021/08/24 00:32:10;;;;;;;8.00;5.43;;;;;23.40;101525.00;;;;2072194;28;20214;-69
2021/08/24 00:33:11;;;;;;;7.83;5.60;;;;;23.40;101522.00;;;;2072595;28;20206;-70
2021/08/24 00:34:11;;;;;;;7.13;5.73;;;;;23.40;101516.00;;;;2072360;28;20217;-69
2021/08/24 00:35:11;;;;;;;6.13;5.27;;;;;23.40;101522.00;;;;2072311;28;20684;-70
2021/08/24 00:36:15;;;;;;;6.03;5.10;;;;;23.40;101518.00;;;;2072403;28;20692;-70
2021/08/24 00:37:16;;;;;;;9.10;5.55;;;;;23.40;101522.00;;;;2072399;28;20249;-69
2021/08/24 00:38:19;;;;;;;5.43;4.80;;;;;23.40;101520.00;;;;2072453;28;20215;-70
2021/08/24 00:39:19;;;;;;;5.97;5.20;;;;;23.40;101522.00;;;;2071600;28;20214;-69
2021/08/24 00:40:19;;;;;;;5.00;4.50;;;;;23.40;101508.00;;;;2071990;28;20763;-70
2021/08/24 00:41:20;;;;;;;6.00;4.90;;;;;23.40;101522.00;;;;2072114;28;20705;-69
2021/08/24 00:42:20;;;;;;;5.67;4.63;;;;;23.40;101523.00;;;;2071785;28;20581;-69
2021/08/24 00:43:21;;;;;;;5.70;4.30;;;;;23.40;101517.00;;;;2069375;28;20305;-69
2021/08/24 00:44:21;;;;;;;5.57;4.40;;;;;23.40;101522.00;;;;2072424;28;20218;-70
2021/08/24 00:45:21;;;;;;;5.33;4.27;;;;;23.40;101510.00;;;;2068505;28;20217;-70
2021/08/24 00:46:42;;;;;;;6.27;4.57;;;;;23.40;101518.00;;;;2071483;28;20603;-69
2021/08/24 00:47:44;;;;;;;4.50;4.10;;;;;23.40;101513.00;;;;2071584;28;20357;-69
2021/08/24 00:48:44;;;;;;;5.78;4.15;;;;;23.40;101517.00;;;;2063096;28;20226;-69
2021/08/24 00:49:44;;;;;;;7.90;4.90;;;;;23.40;101517.00;;;;2067196;28;20218;-70
2021/08/24 00:50:45;;;;;;;4.60;3.53;;;;;23.40;101528.00;;;;2068800;28;20740;-69
2021/08/24 00:52:05;;;;;;;5.20;4.27;;;;;23.40;101523.00;;;;2061273;28;20771;-70
2021/08/24 00:53:10;;;;;;;7.60;3.70;;;;;23.40;101519.00;;;;2055305;28;20502;-70
2021/08/24 00:54:11;;;;;;;5.22;4.25;;;;;23.40;101506.00;;;;2063513;28;20571;-69
2021/08/24 00:55:12;;;;;;;5.18;4.07;;;;;23.40;101515.00;;;;2063192;28;20273;-68
2021/08/24 00:56:12;;;;;;;6.07;3.67;;;;;23.30;101516.00;;;;2063045;28;20264;-69
2021/08/24 00:57:16;;;;;;;7.40;4.40;;;;;23.30;101519.00;;;;2071200;28;20648;-70
2021/08/24 00:58:17;;;;;;;5.80;4.00;;;;;23.30;101513.00;;;;2068022;28;20214;-70
2021/08/24 00:59:18;;;;;;;3.80;3.40;;;;;23.30;101514.00;;;;2070601;28;20217;-69
2021/08/24 01:00:18;;;;;;;4.90;3.83;;;;;23.30;101516.00;;;;2062843;28;20688;-69
2021/08/24 01:01:18;;;;;;;5.47;3.97;;;;;23.30;101514.00;;;;2067058;28;20222;-70
2021/08/24 01:02:19;;;;;;;6.07;4.00;;;;;23.30;101519.00;;;;2071717;28;20230;-69
2021/08/24 01:03:22;;;;;;;4.65;3.30;;;;;23.30;101523.00;;;;2071841;28;20245;-69
2021/08/24 01:04:23;;;;;;;4.20;3.53;;;;;23.20;101514.00;;;;2061244;28;20222;-69
2021/08/24 01:05:23;;;;;;;4.00;3.30;;;;;23.20;101514.00;;;;2062976;28;20215;-70
2021/08/24 01:06:33;;;;;;;8.13;3.70;;;;;23.20;101531.00;;;;2054042;28;20573;-70
2021/08/24 01:07:44;;;;;;;4.00;3.45;;;;;23.20;101529.00;;;;2045562;28;20216;-70
2021/08/24 01:08:52;;;;;;;3.90;3.50;;;;;23.20;101515.00;;;;2054274;28;20211;-69
2021/08/24 01:10:25;;;;;;;4.75;3.40;;;;;23.20;101525.00;;;;2052796;28;20290;-69
2021/08/24 01:11:54;;;;;;;3.90;3.28;;;;;23.20;101526.00;;;;2063702;28;20265;-70
2021/08/24 01:13:03;;;;;;;4.22;3.75;;;;;23.20;101523.00;;;;2071442;28;20242;-69
2021/08/24 01:14:22;;;;;;;3.53;2.88;;;;;23.20;101522.00;;;;2068847;28;20731;-70
2021/08/24 01:15:33;;;;;;;5.03;3.25;;;;;23.20;101526.00;;;;2061103;28;20210;-69
2021/08/24 01:16:39;;;;;;;3.92;3.47;;;;;23.10;101522.00;;;;2071837;28;20222;-70
2021/08/24 01:17:43;;;;;;;5.25;3.20;;;;;23.20;101529.00;;;;2059849;28;20247;-70
2021/08/24 01:18:46;;;;;;;5.18;2.88;;;;;23.10;101516.00;;;;2051079;28;20254;-69
2021/08/24 01:20:14;;;;;;;3.40;3.08;;;;;23.10;101525.00;;;;2069374;28;20257;-69
2021/08/24 01:21:38;;;;;;;3.97;3.25;;;;;23.10;101521.00;;;;2074717;28;20214;-69
2021/08/24 01:23:00;;;;;;;7.20;3.20;;;;;23.20;101526.00;;;;2068653;28;20213;-69
2021/08/24 01:24:12;;;;;;;3.35;3.05;;;;;23.20;101526.00;;;;2062847;28;20233;-69
2021/08/24 01:25:20;;;;;;;3.22;2.92;;;;;23.20;101527.00;;;;2058802;28;20635;-70
2021/08/24 01:26:23;;;;;;;5.50;3.00;;;;;23.20;101529.00;;;;2058922;28;20227;-69
2021/08/24 01:27:30;;;;;;;6.07;3.28;;;;;23.20;101519.00;;;;2059103;28;20215;-70
2021/08/24 01:28:49;;;;;;;4.75;3.00;;;;;23.20;101528.00;;;;2065707;28;20302;-70
2021/08/24 01:30:03;;;;;;;3.97;2.92;;;;;23.20;101526.00;;;;2069263;28;20293;-69
2021/08/24 01:31:27;;;;;;;3.45;2.78;;;;;23.20;101521.00;;;;2071171;28;20301;-70
2021/08/24 01:32:52;;;;;;;3.35;2.67;;;;;23.10;101518.00;;;;2063072;28;20251;-70
2021/08/24 01:34:19;;;;;;;3.03;2.60;;;;;23.10;101524.00;;;;2066773;28;20647;-70
2021/08/24 01:35:24;;;;;;;3.00;2.40;;;;;23.20;101527.00;;;;2071876;28;20230;-69
2021/08/24 01:36:31;;;;;;;4.20;2.90;;;;;23.10;101527.00;;;;2071365;28;20838;-70
2021/08/24 01:37:35;;;;;;;3.95;2.90;;;;;23.10;101526.00;;;;2071384;28;20217;-70
2021/08/24 01:38:40;;;;;;;4.38;2.53;;;;;23.10;101525.00;;;;2070125;28;20225;-70
2021/08/24 01:39:47;;;;;;;3.90;2.88;;;;;23.10;101501.00;;;;2052953;28;20311;-70
2021/08/24 01:40:55;;;;;;;4.80;2.42;;;;;23.10;101524.00;;;;2063835;28;20689;-70
2021/08/24 01:42:17;;;;;;;2.63;2.42;;;;;23.10;101526.00;;;;2071353;28;20214;-70
2021/08/24 01:43:22;;;;;;;2.47;2.28;;;;;23.10;101526.00;;;;2065766;28;20305;-70
2021/08/24 01:44:22;;;;;;;2.53;2.30;;;;;23.10;101528.00;;;;2071301;28;20214;-69
2021/08/24 01:45:26;;;;;;;3.10;2.70;;;;;23.10;101529.00;;;;2063133;28;20218;-69
2021/08/24 01:46:44;;;;;;;2.92;2.63;;;;;23.10;101522.00;;;;2067364;28;21031;-69
2021/08/24 01:48:16;;;;;;;3.33;2.25;;;;;23.10;101528.00;;;;2067922;28;20956;-69
2021/08/24 01:49:18;;;;;;;2.92;1.98;;;;;23.10;101522.00;;;;2062618;28;20215;-68
2021/08/24 01:50:28;;;;;;;2.58;2.38;;;;;23.10;101534.00;;;;2063013;28;20203;-70
2021/08/24 01:51:34;;;;;;;2.85;2.10;;;;;23.10;101535.00;;;;2057329;28;20649;-69
2021/08/24 01:52:35;;;;;;;2.65;2.38;;;;;23.10;101526.00;;;;2055024;28;20304;-70
2021/08/24 01:53:45;;;;;;;4.18;2.58;;;;;23.10;101538.00;;;;2043861;28;20683;-69
2021/08/24 01:54:56;;;;;;;3.95;2.78;;;;;23.10;101539.00;;;;2053287;28;20219;-70
2021/08/24 01:56:03;;;;;;;2.72;2.00;;;;;23.10;101536.00;;;;2061592;28;20228;-69
2021/08/24 01:57:05;;;;;;;3.45;2.25;;;;;23.10;101524.00;;;;2053064;28;20295;-69
2021/08/24 01:58:19;;;;;;;2.40;2.20;;;;;23.00;101529.00;;;;2043137;28;20275;-69
2021/08/24 01:59:19;;;;;;;3.00;2.50;;;;;23.00;101533.00;;;;2055160;28;20219;-68
2021/08/24 02:00:20;;;;;;;5.07;2.00;;;;;23.00;101545.00;;;;2066444;28;20268;-69
2021/08/24 02:01:24;;;;;;;3.27;2.50;;;;;23.10;101531.00;;;;2068938;28;20317;-69
2021/08/24 02:02:27;;;;;;;2.25;2.05;;;;;23.10;101527.00;;;;2071324;28;20225;-68
2021/08/24 02:03:38;;;;;;;2.38;2.17;;;;;23.00;101537.00;;;;2055002;28;20222;-70
2021/08/24 02:04:52;;;;;;;2.70;2.20;;;;;23.10;101535.00;;;;2056491;28;20831;-70
2021/08/24 02:05:55;;;;;;;3.00;1.90;;;;;23.00;101524.00;;;;2060661;28;20217;-68
2021/08/24 02:06:56;;;;;;;2.70;2.50;;;;;23.00;101533.00;;;;2064355;28;20219;-69
2021/08/24 02:08:01;;;;;;;2.27;2.07;;;;;23.00;101537.00;;;;2069023;28;20892;-69
2021/08/24 02:09:03;;;;;;;2.50;1.70;;;;;23.10;101534.00;;;;2049279;28;20228;-69
2021/08/24 02:10:10;;;;;;;2.13;1.92;;;;;23.10;101534.00;;;;2050897;28;20586;-70
2021/08/24 02:11:10;;;;;;;3.03;2.15;;;;;23.00;101537.00;;;;2059759;28;20683;-69
2021/08/24 02:12:10;;;;;;;2.13;1.93;;;;;23.00;101535.00;;;;2063519;28;20321;-70
2021/08/24 02:13:11;;;;;;;2.23;2.03;;;;;23.10;101542.00;;;;2071228;28;20689;-69
2021/08/24 02:14:14;;;;;;;2.80;2.13;;;;;23.10;101539.00;;;;2071114;28;20685;-70
2021/08/24 02:15:15;;;;;;;2.20;2.00;;;;;23.10;101534.00;;;;2055227;28;20214;-69
2021/08/24 02:16:18;;;;;;;2.30;1.90;;;;;23.00;101537.00;;;;2055114;28;20216;-69
2021/08/24 02:17:19;;;;;;;1.83;1.70;;;;;23.10;101536.00;;;;2063427;28;20720;-69
2021/08/24 02:18:23;;;;;;;2.08;1.88;;;;;23.10;101544.00;;;;2070656;28;20222;-70
2021/08/24 02:19:27;;;;;;;3.13;1.90;;;;;23.00;101533.00;;;;2051310;28;20220;-69
2021/08/24 02:20:34;;;;;;;3.45;2.10;;;;;23.00;101531.00;;;;2055116;28;20233;-69
2021/08/24 02:21:40;;;;;;;2.92;2.17;;;;;23.00;101533.00;;;;2051437;28;20230;-69
2021/08/24 02:22:41;;;;;;;2.15;1.88;;;;;23.00;101543.00;;;;2054332;28;20555;-69
2021/08/24 02:23:41;;;;;;;2.07;1.87;;;;;23.00;101544.00;;;;2062960;28;20265;-69
2021/08/24 02:24:50;;;;;;;2.10;1.90;;;;;23.00;101540.00;;;;2063070;28;20457;-70
2021/08/24 02:25:55;;;;;;;4.55;1.80;;;;;23.10;101543.00;;;;2067683;28;20224;-70
2021/08/24 02:26:55;;;;;;;1.75;1.60;;;;;23.10;101541.00;;;;2070563;28;20592;-69
2021/08/24 02:28:06;;;;;;;2.20;2.00;;;;;23.10;101535.00;;;;2070748;28;20269;-69
2021/08/24 02:29:07;;;;;;;2.53;1.77;;;;;23.00;101538.00;;;;2070232;28;20260;-69
2021/08/24 02:30:07;;;;;;;2.27;1.80;;;;;23.00;101539.00;;;;2071148;28;20211;-70
2021/08/24 02:31:38;;;;;;;1.90;1.80;;;;;23.00;101547.00;;;;2070781;28;20230;-70
2021/08/24 02:32:44;;;;;;;2.35;1.70;;;;;23.00;101541.00;;;;2064629;28;20247;-70
2021/08/24 02:33:49;;;;;;;3.45;1.98;;;;;23.00;101549.00;;;;2067013;28;20222;-70
2021/08/24 02:35:16;;;;;;;2.00;1.83;;;;;23.00;101541.00;;;;2063795;28;20214;-70
2021/08/24 02:36:17;;;;;;;2.00;1.80;;;;;23.00;101539.00;;;;2067225;28;20214;-70
2021/08/24 02:37:29;;;;;;;1.90;1.80;;;;;23.00;101540.00;;;;2069095;28;20265;-70
2021/08/24 02:38:34;;;;;;;2.05;1.80;;;;;23.00;101547.00;;;;2057709;28;20219;-69
2021/08/24 02:39:50;;;;;;;1.73;1.58;;;;;23.00;101541.00;;;;2062479;28;20686;-70
2021/08/24 02:41:01;;;;;;;2.20;2.00;;;;;23.00;101549.00;;;;2061319;28;21435;-70
2021/08/24 02:42:07;;;;;;;2.00;1.80;;;;;23.00;101543.00;;;;2060078;28;20297;-70
2021/08/24 02:43:13;;;;;;;1.65;1.55;;;;;22.90;101545.00;;;;2057035;28;20223;-69
2021/08/24 02:44:18;;;;;;;2.35;1.80;;;;;23.00;101547.00;;;;2062594;28;20265;-70
2021/08/24 02:45:36;;;;;;;1.80;1.70;;;;;23.00;101539.00;;;;2067228;28;20226;-69
2021/08/24 02:46:40;;;;;;;2.08;1.73;;;;;23.00;101550.00;;;;2062651;28;20219;-69
2021/08/24 02:47:40;;;;;;;1.40;1.30;;;;;23.00;101544.00;;;;2061984;28;20769;-69
2021/08/24 02:48:41;;;;;;;1.70;1.60;;;;;23.00;101541.00;;;;2061880;28;20211;-70
2021/08/24 02:49:41;;;;;;;1.83;1.65;;;;;23.00;101546.00;;;;2059923;28;20219;-69
2021/08/24 02:50:42;;;;;;;1.90;1.70;;;;;22.90;101544.00;;;;2062805;28;20211;-69
2021/08/24 02:51:45;;;;;;;2.13;1.90;;;;;23.00;101550.00;;;;2062517;28;20222;-69
2021/08/24 02:52:46;;;;;;;2.15;1.88;;;;;23.00;101546.00;;;;2060394;28;20223;-69
2021/08/24 02:54:04;;;;;;;1.77;1.53;;;;;23.00;101551.00;;;;2061473;28;20238;-69
2021/08/24 02:55:06;;;;;;;1.90;1.50;;;;;23.00;101545.00;;;;2067983;28;20696;-70
2021/08/24 02:56:06;;;;;;;1.80;1.70;;;;;23.00;101550.00;;;;2069939;28;20225;-70
2021/08/24 02:57:07;;;;;;;1.43;1.33;;;;;23.00;101554.00;;;;2071597;28;20246;-69
2021/08/24 02:58:07;;;;;;;4.23;1.60;;;;;23.00;101544.00;;;;2070941;28;20325;-69
2021/08/24 02:59:08;;;;;;;2.27;2.07;;;;;23.00;101549.00;;;;2069988;28;20484;-69
2021/08/24 03:00:08;;;;;;;1.70;1.60;;;;;22.90;101552.00;;;;2071197;28;20313;-69
2021/08/24 03:01:09;;;;;;;2.47;2.00;;;;;22.90;101542.00;;;;2071201;28;20585;-70
2021/08/24 03:02:10;;;;;;;1.60;1.50;;;;;22.90;101542.00;;;;2071415;28;20210;-70
2021/08/24 03:03:10;;;;;;;1.57;1.47;;;;;23.00;101552.00;;;;2070426;28;20221;-69
2021/08/24 03:04:10;;;;;;;3.20;1.33;;;;;23.00;101543.00;;;;2070630;28;20207;-70
2021/08/24 03:05:11;;;;;;;1.70;1.40;;;;;23.00;101548.00;;;;2071422;28;20210;-69
2021/08/24 03:06:11;;;;;;;1.60;1.50;;;;;22.90;101556.00;;;;2071305;28;20204;-69
2021/08/24 03:07:17;;;;;;;1.80;1.50;;;;;23.00;101525.00;;;;2071034;28;20210;-70
2021/08/24 03:08:17;;;;;;;1.85;1.70;;;;;23.00;101548.00;;;;2070811;28;20217;-70
2021/08/24 03:09:17;;;;;;;1.53;1.30;;;;;23.00;101544.00;;;;2060497;28;20636;-70
2021/08/24 03:10:22;;;;;;;1.83;1.50;;;;;23.00;101547.00;;;;2066550;28;20261;-70
2021/08/24 03:11:23;;;;;;;2.72;1.88;;;;;23.00;101551.00;;;;2061699;28;20824;-70
2021/08/24 03:12:41;;;;;;;1.85;1.60;;;;;23.00;101551.00;;;;2059120;28;20211;-70
2021/08/24 03:14:05;;;;;;;2.05;1.60;;;;;23.00;101546.00;;;;2066721;28;20241;-69
2021/08/24 03:15:12;;;;;;;1.83;1.40;;;;;23.00;101549.00;;;;2060591;28;20206;-69
2021/08/24 03:16:16;;;;;;;1.60;1.50;;;;;23.00;101550.00;;;;2071106;28;20751;-69
2021/08/24 03:17:32;;;;;;;2.10;1.90;;;;;23.00;101545.00;;;;2071307;28;20217;-69
2021/08/24 03:18:41;;;;;;;2.30;1.50;;;;;23.00;101547.00;;;;2070375;28;20214;-68
2021/08/24 03:19:42;;;;;;;1.60;1.50;;;;;23.00;101554.00;;;;2050180;28;20199;-69
2021/08/24 03:20:43;;;;;;;2.05;1.85;;;;;23.00;101550.00;;;;2054982;28;20215;-69
2021/08/24 03:21:43;;;;;;;1.30;1.20;;;;;23.00;101549.00;;;;2062744;28;20690;-70
2021/08/24 03:22:44;;;;;;;2.10;1.63;;;;;23.00;101545.00;;;;2069902;28;20241;-69
2021/08/24 03:23:44;;;;;;;1.73;1.63;;;;;23.00;101558.00;;;;2067742;28;20729;-69
2021/08/24 03:24:45;;;;;;;1.70;1.60;;;;;23.00;101556.00;;;;2053371;28;20223;-69
2021/08/24 03:25:46;;;;;;;1.73;1.63;;;;;23.00;101545.00;;;;2059595;28;20811;-69
2021/08/24 03:26:47;;;;;;;2.25;1.35;;;;;23.00;101551.00;;;;2062331;28;20225;-69
2021/08/24 03:27:51;;;;;;;1.57;1.47;;;;;23.00;101555.00;;;;2054238;28;20266;-70
2021/08/24 03:28:51;;;;;;;1.40;1.30;;;;;23.00;101548.00;;;;2067913;28;20724;-70
2021/08/24 03:30:00;;;;;;;1.50;1.40;;;;;23.00;101559.00;;;;2070751;28;20326;-70
2021/08/24 03:31:00;;;;;;;1.58;1.45;;;;;22.90;101558.00;;;;2066286;28;20284;-69
2021/08/24 03:32:02;;;;;;;2.20;1.60;;;;;23.00;101554.00;;;;2070659;28;20297;-69
2021/08/24 03:33:03;;;;;;;1.70;1.55;;;;;23.00;101563.00;;;;2070419;28;20723;-70
2021/08/24 03:34:03;;;;;;;1.50;1.40;;;;;23.00;101563.00;;;;2070637;28;20237;-69
2021/08/24 03:35:04;;;;;;;1.50;1.40;;;;;23.00;101556.00;;;;2071304;28;20696;-69
2021/08/24 03:36:04;;;;;;;3.67;1.40;;;;;22.90;101562.00;;;;2070967;28;20260;-68
2021/08/24 03:37:05;;;;;;;1.40;1.10;;;;;22.90;101558.00;;;;2071346;28;20714;-69
2021/08/24 03:38:05;;;;;;;2.27;1.77;;;;;22.90;101558.00;;;;2071210;28;20301;-69
2021/08/24 03:39:05;;;;;;;1.50;1.40;;;;;22.90;101568.00;;;;2066542;28;20214;-68
2021/08/24 03:40:07;;;;;;;1.20;1.10;;;;;22.90;101558.00;;;;2070599;28;20218;-69
2021/08/24 03:41:08;;;;;;;2.03;1.60;;;;;22.90;101563.00;;;;2071012;28;20221;-69
2021/08/24 03:42:08;;;;;;;2.47;1.40;;;;;22.90;101565.00;;;;2070991;28;20216;-69
2021/08/24 03:43:09;;;;;;;2.10;1.47;;;;;23.00;101566.00;;;;2071157;28;20225;-69
2021/08/24 03:44:09;;;;;;;2.07;1.67;;;;;23.00;101566.00;;;;2071196;28;20214;-69
2021/08/24 03:45:10;;;;;;;1.60;1.30;;;;;22.90;101565.00;;;;2071345;28;20302;-69
2021/08/24 03:46:10;;;;;;;1.43;1.33;;;;;22.90;101558.00;;;;2070805;28;20216;-69
2021/08/24 03:47:11;;;;;;;1.60;1.50;;;;;22.90;101566.00;;;;2070501;28;20257;-69
2021/08/24 03:48:11;;;;;;;2.40;1.70;;;;;22.80;101566.00;;;;2070614;28;20225;-69
2021/08/24 03:49:11;;;;;;;2.00;1.53;;;;;22.80;101565.00;;;;2070449;28;20562;-69
2021/08/24 03:50:11;;;;;;;1.50;1.37;;;;;22.90;101561.00;;;;2071289;28;20688;-68
2021/08/24 03:51:12;;;;;;;1.40;1.30;;;;;22.90;101564.00;;;;2071567;28;20210;-69
2021/08/24 03:52:12;;;;;;;1.80;1.60;;;;;22.90;101565.00;;;;2072820;28;20213;-69
2021/08/24 03:53:13;;;;;;;1.80;1.50;;;;;22.90;101563.00;;;;2072963;28;20209;-69
2021/08/24 03:54:13;;;;;;;1.87;1.63;;;;;22.90;101564.00;;;;2069256;28;20217;-69
2021/08/24 03:55:13;;;;;;;2.00;1.40;;;;;22.90;101560.00;;;;2072725;28;20268;-70
2021/08/24 03:56:14;;;;;;;1.40;1.30;;;;;22.90;101569.00;;;;2072589;28;20217;-69
2021/08/24 03:57:14;;;;;;;2.13;1.70;;;;;22.90;101562.00;;;;2072686;28;20301;-70
2021/08/24 03:58:14;;;;;;;1.70;1.60;;;;;22.90;101554.00;;;;2073015;28;20206;-69
2021/08/24 03:59:15;;;;;;;1.73;1.43;;;;;22.90;101563.00;;;;2072172;28;20214;-69
2021/08/24 04:00:15;;;;;;;1.80;1.50;;;;;22.90;101565.00;;;;2071968;28;20226;-69
2021/08/24 04:01:17;;;;;;;1.47;1.37;;;;;22.90;101560.00;;;;2072235;28;20297;-70
2021/08/24 04:02:18;;;;;;;1.50;1.40;;;;;22.90;101560.00;;;;2072162;28;20256;-69
2021/08/24 04:03:18;;;;;;;3.17;1.55;;;;;22.90;101562.00;;;;2070695;28;20285;-70
2021/08/24 04:04:19;;;;;;;2.63;1.70;;;;;22.80;101563.00;;;;2072195;28;20202;-70
2021/08/24 04:05:19;;;;;;;1.70;1.30;;;;;22.90;101569.00;;;;2072337;28;21115;-69
2021/08/24 04:06:19;;;;;;;1.73;1.30;;;;;22.80;101567.00;;;;2072109;28;20296;-70
2021/08/24 04:07:20;;;;;;;2.10;1.43;;;;;22.90;101572.00;;;;2071514;28;20223;-69
2021/08/24 04:08:20;;;;;;;1.90;1.40;;;;;22.90;101567.00;;;;2071747;28;20229;-70
2021/08/24 04:09:20;;;;;;;2.03;1.83;;;;;22.90;101569.00;;;;2070447;28;20222;-70
2021/08/24 04:10:21;;;;;;;1.50;1.40;;;;;22.90;101571.00;;;;2072741;28;20211;-69
2021/08/24 04:11:21;;;;;;;2.63;1.73;;;;;23.00;101566.00;;;;2072433;28;20222;-69
2021/08/24 04:12:22;;;;;;;3.23;1.63;;;;;23.00;101573.00;;;;2072632;28;20214;-70
2021/08/24 04:13:22;;;;;;;5.93;1.70;;;;;23.10;101576.00;;;;2068933;28;20229;-70
2021/08/24 04:14:23;;;;;;;6.90;2.13;;;;;22.90;101576.00;;;;2072804;28;20202;-69
2021/08/24 04:15:23;;;;;;;9.03;2.60;;;;;23.00;101579.00;;;;2072752;28;20225;-70
2021/08/24 04:16:23;;;;;;;5.63;2.17;;;;;23.00;101580.00;;;;2071716;28;20297;-68
2021/08/24 04:17:24;;;;;;;7.83;1.70;;;;;23.00;101579.00;;;;2072080;28;20206;-69
2021/08/24 04:18:24;;;;;;;2.87;2.13;;;;;23.10;101586.00;;;;2072744;28;20211;-68
2021/08/24 04:19:24;;;;;;;4.27;2.13;;;;;23.10;101573.00;;;;2072098;28;20239;-69
2021/08/24 04:20:25;;;;;;;3.53;2.00;;;;;23.10;101572.00;;;;2072712;28;21023;-69
2021/08/24 04:21:25;;;;;;;4.73;1.80;;;;;23.10;101572.00;;;;2072636;28;20797;-69
2021/08/24 04:22:25;;;;;;;3.80;1.77;;;;;23.10;101581.00;;;;2072660;28;20627;-69
2021/08/24 04:23:26;;;;;;;2.63;1.93;;;;;23.10;101574.00;;;;2071318;28;20225;-69
2021/08/24 04:24:26;;;;;;;4.90;1.90;;;;;23.10;101572.00;;;;2069109;28;20300;-69
2021/08/24 04:25:26;;;;;;;2.70;2.00;;;;;23.10;101575.00;;;;2071172;28;20206;-69
2021/08/24 04:26:27;;;;;;;2.80;1.47;;;;;23.10;101574.00;;;;2071411;28;20214;-69
2021/08/24 04:27:28;;;;;;;3.28;1.75;;;;;23.20;101582.00;;;;2071324;28;20227;-69
2021/08/24 04:28:28;;;;;;;2.47;2.10;;;;;23.10;101574.00;;;;2071497;28;20218;-68
2021/08/24 04:29:28;;;;;;;3.43;1.47;;;;;23.10;101573.00;;;;2071999;28;20712;-69
2021/08/24 04:30:29;;;;;;;7.40;1.80;;;;;23.10;101575.00;;;;2072539;28;20222;-68
2021/08/24 04:31:32;;;;;;;3.07;2.00;;;;;23.10;101584.00;;;;2068262;28;20241;-68
2021/08/24 04:32:34;;;;;;;2.03;1.60;;;;;23.00;101581.00;;;;2061705;28;20276;-68
2021/08/24 04:33:34;;;;;;;2.33;1.60;;;;;23.00;101582.00;;;;2050540;28;20591;-67
2021/08/24 04:34:35;;;;;;;3.97;1.93;;;;;23.00;101573.00;;;;2071238;28;20223;-68
2021/08/24 04:35:35;;;;;;;3.90;1.47;;;;;23.00;101578.00;;;;2071061;28;20226;-68
2021/08/24 04:36:35;;;;;;;3.50;1.90;;;;;23.00;101576.00;;;;2071955;28;20210;-68
2021/08/24 04:37:36;;;;;;;3.70;1.53;;;;;23.00;101572.00;;;;2071911;28;20289;-68
2021/08/24 04:38:36;;;;;;;2.20;1.50;;;;;23.00;101582.00;;;;2072040;28;20261;-68
2021/08/24 04:39:36;;;;;;;1.90;1.70;;;;;23.00;101580.00;;;;2070779;28;20271;-68
2021/08/24 04:40:37;;;;;;;1.80;1.70;;;;;22.90;101579.00;;;;2071537;28;20298;-68
2021/08/24 04:41:37;;;;;;;4.37;1.77;;;;;22.90;101586.00;;;;2072429;28;20233;-69
2021/08/24 04:42:37;;;;;;;5.87;1.70;;;;;23.00;101581.00;;;;2072404;28;20228;-68
2021/08/24 04:43:38;;;;;;;2.93;1.47;;;;;23.00;101592.00;;;;2072387;28;20226;-68
2021/08/24 04:44:38;;;;;;;3.20;1.90;;;;;22.90;101585.00;;;;2072636;28;20684;-68
2021/08/24 04:45:38;;;;;;;3.40;1.60;;;;;22.90;101582.00;;;;2072199;28;20596;-68
2021/08/24 04:46:39;;;;;;;2.50;1.40;;;;;22.90;101587.00;;;;2072414;28;20290;-68
2021/08/24 04:47:39;;;;;;;1.70;1.30;;;;;22.90;101583.00;;;;2072730;28;20225;-68
2021/08/24 04:48:39;;;;;;;2.60;1.57;;;;;22.90;101598.00;;;;2071632;28;20222;-69
2021/08/24 04:49:40;;;;;;;3.80;1.80;;;;;22.90;101594.00;;;;2068223;28;20308;-69
2021/08/24 04:50:40;;;;;;;3.63;1.70;;;;;22.90;101595.00;;;;2071781;28;20283;-68
2021/08/24 04:51:41;;;;;;;1.90;1.60;;;;;22.90;101597.00;;;;2071441;28;20227;-69
2021/08/24 04:52:41;;;;;;;5.30;1.50;;;;;22.90;101597.00;;;;2072198;28;20222;-68
2021/08/24 04:53:41;;;;;;;2.77;2.10;;;;;22.90;101590.00;;;;2070683;28;20297;-69
2021/08/24 04:54:42;;;;;;;4.40;1.50;;;;;22.90;101594.00;;;;2071276;28;20226;-68
2021/08/24 04:55:42;;;;;;;1.73;1.63;;;;;22.90;101585.00;;;;2071752;28;20244;-69
2021/08/24 04:56:43;;;;;;;2.60;1.50;;;;;22.90;101597.00;;;;2071798;28;20225;-69
2021/08/24 04:57:43;;;;;;;4.80;2.00;;;;;22.90;101591.00;;;;2072023;28;20305;-69
2021/08/24 04:58:43;;;;;;;3.13;2.10;;;;;22.90;101591.00;;;;2071620;28;20644;-69
2021/08/24 04:59:44;;;;;;;2.63;2.20;;;;;22.90;101599.00;;;;2071599;28;20575;-68
2021/08/24 05:00:44;;;;;;;4.57;3.60;;;;;22.90;101590.00;;;;2072152;28;20218;-69
2021/08/24 05:01:44;;;;;;;6.10;4.47;;;;;22.90;101584.00;;;;2072154;28;20222;-69
2021/08/24 05:02:45;;;;;;;7.60;6.80;;;;;22.90;101587.00;;;;2071714;28;20229;-69
2021/08/24 05:03:45;;;;;;;6.90;5.77;;;;;22.90;101591.00;;;;2072144;28;20830;-69
2021/08/24 05:04:45;;;;;;;8.57;6.37;;;;;22.90;101592.00;;;;2072083;28;20242;-68
2021/08/24 05:05:46;;;;;;;12.50;9.73;;;;;22.90;101596.00;;;;2070974;28;20217;-69
2021/08/24 05:06:46;;;;;;;12.73;10.67;;;;;22.90;101602.00;;;;2072111;28;20245;-69
2021/08/24 05:07:46;;;;;;;11.43;10.20;;;;;22.90;101601.00;;;;2071912;28;20245;-69
2021/08/24 05:08:47;;;;;;;14.97;13.30;;;;;22.90;101602.00;;;;2071574;28;20222;-69
2021/08/24 05:09:47;;;;;;;17.73;15.87;;;;;22.90;101601.00;;;;2071586;28;20283;-69
2021/08/24 05:10:47;;;;;;;17.43;15.43;;;;;22.90;101601.00;;;;2071548;28;20222;-69
2021/08/24 05:11:48;;;;;;;18.93;16.30;;;;;22.90;101602.00;;;;2061925;28;20249;-69
2021/08/24 05:12:48;;;;;;;19.13;16.23;;;;;22.90;101601.00;;;;2071279;28;20225;-69
2021/08/24 05:13:48;;;;;;;18.53;16.53;;;;;22.90;101605.00;;;;2071441;28;20272;-69
2021/08/24 05:14:49;;;;;;;19.63;16.73;;;;;22.90;101595.00;;;;2071573;28;20237;-68